• Join FlightAware (Why Join?)
  • Login
  • US Flag 
07:51PM EDT


 

Airport Tracker/Info


-or-


 

Live Flight TrackerFlight Track Log ✈ CHQ3058 ✈ 30-Jun-2013 ✈ KCLT - KFAY

Flight Track Log - Related Links

Times and Time Zones

All times are in EDT time to prevent confusion due to time zone crossing. See the CHQ3058 flight status page for this flight to view local times or setup timezone preferences in your user account.

Time Position Orientation Groundspeed Altitude Reporting Facility
EDT Latitude Longitude Course Direction KTS MPH feet Rate Location/Type
06:41PM 35.2033 -80.9353 99° East 148 170 1,400  Level Atlanta Center
06:42PM 35.1903 -80.8342 99° East 211 243 5,300 2,280 Climbing Atlanta Center
06:43PM 35.2219 -80.7692 59° Northeast 242 278 7,700 2,220 Climbing Atlanta Center
06:44PM 35.2661 -80.7064 49° Northeast 259 298 9,900 1,620 Climbing Atlanta Center
06:45PM 35.3144 -80.6358 50° Northeast 273 314 11,000 540 Climbing Atlanta Center
06:46PM 35.3536 -80.5500 61° Northeast 307 353 11,000  Level Atlanta Center
06:47PM 35.3819 -80.4469 71° East 306 352 11,000  Level Atlanta Center
06:49PM 35.3921 -80.3605 82° East  Level FlightAware Approximate
06:56PM 35.5185 -79.7755 74° East  Level FlightAware Approximate
06:57PM 35.5429 -79.6783 73° East  Level FlightAware Approximate
06:58PM 35.5673 -79.5810 73° East  Level FlightAware Approximate
06:59PM 35.5901 -79.4831 76° East  Level FlightAware Approximate
07:00PM 35.5681 -79.4014 141° Southeast  Level FlightAware Approximate
07:01PM 35.5039 -79.3372 141° Southeast  Level FlightAware Approximate
07:02PM 35.4397 -79.2730 141° Southeast  Level FlightAware Approximate
07:03PM 35.3731 -79.2126 145° Southeast  Level FlightAware Approximate
07:04PM 35.3053 -79.1545 145° Southeast  Level FlightAware Approximate
07:05PM 35.2354 -79.1021 141° Southeast  Level FlightAware Approximate
07:06PM 35.1713 -79.0380 141° Southeast  Level FlightAware Approximate
07:07PM 35.1021 -78.9844 158° South  Level FlightAware Approximate
07:08PM 35.0377 -78.9210 141° Southeast  Level FlightAware Approximate
07:09PM 34.9912 -78.8803 North  Level Estimated
07:10PM 34.9912 -78.8803 North  Level Estimated
07:11PM 34.9912 -78.8803 North  Level Estimated